Aviation Digital Data Service (ADDS)

Output produced by METARs form (1838 UTC 19 August 2019)
found at http://www.aviationweather.gov/metar/data/
 
Forecast for: AMD
Text: TAF AMD CYHD 190746Z 1908/1920 23010KT P6SM BKN080
Forecast period: 0800 to 1500 UTC 19 August 2019
Forecast type: FROM: standard forecast or significant change
Winds: from the SW (230 degrees) at 12 MPH (10 knots; 5.1 m/s)
Visibility: 6 or more miles 10+ km)
Ceiling: 8000 feet AGL
Clouds: broken clouds at 8000 feet AGL
Weather: no significant weather forecast for this period
Text: FM191500 24012G22KT P6SM FEW100 RMK FCST BASED ON AUTO OBS. WND SENSORS INOP. NXT FCST BY 191400Z
Forecast period: 1500 to 2000 UTC 19 August 2019
Forecast type: FROM: standard forecast or significant change
Winds: from the WSW (240 degrees) at 14 MPH (12 knots; 6.2 m/s)
gusting to 25 MPH (22 knots; 11.3 m/s)
Visibility: 6 or more miles 10+ km)
Ceiling: at least 12,000 feet AGL
Clouds: few clouds at 10000 feet AGL
Weather: no significant weather forecast for this period